Time;durP1;ratioP1;P1;durP2;ratioP2;P2;SDS_P1;SDS_P2;PMS_P1;PMS_P2;Temp;Humidity;BMP_temperature;BMP_pressure;BME280_temperature;BME280_humidity;BME280_pressure;Samples;Min_cycle;Max_cycle;Signal;HPM_P1;HPM_P2
2021/04/02 00:01:21;;;;;;;;;;;;;;;;;;4146734;28;20336;-80
2021/04/02 00:03:25;;;;;;;;;;;;;;;;;;4138266;28;19910;-81
2021/04/02 00:05:29;;;;;;;;;;;;;;;;;;4147165;28;19941;-81
2021/04/02 00:07:34;;;;;;;;;;;;;;;;;;4164490;28;20035;-81
2021/04/02 00:09:38;;;;;;;;;;;;;;;;;;4164213;28;19991;-80
2021/04/02 00:11:42;;;;;;;;;;;;;;;;;;4152638;28;19909;-80
2021/04/02 00:13:46;;;;;;;;;;;;;;;;;;4168788;28;19913;-79
2021/04/02 00:15:50;;;;;;;;;;;;;;;;;;4164380;28;19937;-80
2021/04/02 00:17:54;;;;;;;;;;;;;;;;;;4145353;28;20000;-80
2021/04/02 00:19:59;;;;;;;;;;;;;;;;;;4125393;28;20615;-80
2021/04/02 00:22:03;;;;;;;;;;;;;;;;;;4126931;28;20388;-81
2021/04/02 00:24:07;;;;;;;;;;;;;;;;;;4122325;28;19909;-80
2021/04/02 00:26:11;;;;;;;;;;;;;;;;;;4131799;28;20044;-81
2021/04/02 00:28:15;;;;;;;;;;;;;;;;;;4131509;28;20005;-80
2021/04/02 00:30:19;;;;;;;;;;;;;;;;;;4131824;28;20021;-81
2021/04/02 00:32:25;;;;;;;;;;;;;;;;;;4132929;28;19910;-80
2021/04/02 00:34:29;;;;;;;;;;;;;;;;;;4132655;28;19917;-81
2021/04/02 00:36:33;;;;;;;;;;;;;;;;;;4131365;28;19925;-81
2021/04/02 00:38:37;;;;;;;;;;;;;;;;;;4130987;28;20363;-80
2021/04/02 00:40:42;;;;;;;;;;;;;;;;;;4131599;28;19910;-80
2021/04/02 00:42:42;;;;;;;;;;;2.50;99.90;;;;;;4132889;28;19945;-81
2021/04/02 00:44:43;;;;;;;;;;;2.40;99.90;;;;;;4132433;28;20082;-80
2021/04/02 00:46:44;;;;;;;;;;;2.40;99.90;;;;;;4115226;28;19914;-80
2021/04/02 00:48:44;;;;;;;;;;;2.40;99.90;;;;;;4132390;28;19941;-81
2021/04/02 00:50:51;;;;;;;;;;;2.40;99.90;;;;;;4131374;28;20499;-81
2021/04/02 00:52:51;;;;;;;;;;;2.40;99.90;;;;;;4131131;28;19910;-81
2021/04/02 00:54:52;;;;;;;;;;;2.40;99.90;;;;;;4132182;28;19920;-81
2021/04/02 00:56:52;;;;;;;;;;;2.40;99.90;;;;;;4132571;28;20270;-80
2021/04/02 00:58:53;;;;;;;;;;;2.40;99.90;;;;;;4132421;28;20268;-80
2021/04/02 01:00:54;;;;;;;;;;;2.40;99.90;;;;;;4132015;28;20371;-80
2021/04/02 01:02:55;;;;;;;;;;;2.50;99.90;;;;;;4132012;28;19917;-82
2021/04/02 01:04:55;;;;;;;;;;;2.50;99.90;;;;;;4132020;28;20215;-81
2021/04/02 01:06:56;;;;;;;;;;;2.60;99.90;;;;;;4130705;28;20366;-80
2021/04/02 01:08:57;;;;;;;;;;;2.50;99.90;;;;;;4130645;28;20292;-81
2021/04/02 01:10:58;;;;;;;;;;;2.50;99.90;;;;;;4130828;28;19953;-81
2021/04/02 01:13:01;;;;;;;;;;;1.40;99.90;;;;;;4130826;28;19992;-81
2021/04/02 01:15:03;;;;;;;;;;;;;;;;;;4126648;28;19914;-79
2021/04/02 01:17:06;;;;;;;;;;;;;;;;;;4127217;28;20353;-80
2021/04/02 01:19:10;;;;;;;;;;;;;;;;;;4152670;28;19921;-81
2021/04/02 01:21:14;;;;;;;;;;;;;;;;;;4164825;28;19982;-80
2021/04/02 01:23:19;;;;;;;;;;;2.50;99.90;;;;;;4146538;28;19932;-81
2021/04/02 01:25:38;;;;;;;;;;;2.50;99.90;;;;;;4146447;28;19992;-81
2021/04/02 01:27:54;;;;;;;;;;;2.50;99.90;;;;;;4164087;28;20241;-80
2021/04/02 01:30:02;;;;;;;;;;;2.50;99.90;;;;;;4164155;28;20280;-80
2021/04/02 01:32:06;;;;;;;;;;;2.50;99.90;;;;;;4164049;28;20003;-80
2021/04/02 01:34:07;;;;;;;;;;;2.50;99.90;;;;;;4163912;28;20332;-80
2021/04/02 01:36:10;;;;;;;;;;;2.50;99.90;;;;;;4164145;28;19916;-79
2021/04/02 01:38:16;;;;;;;;;;;2.40;99.90;;;;;;4164279;28;20276;-80
2021/04/02 01:40:17;;;;;;;;;;;2.30;99.90;;;;;;4146668;28;20441;-80
2021/04/02 01:42:19;;;;;;;;;;;2.30;99.90;;;;;;4163130;28;19956;-80
2021/04/02 01:44:20;;;;;;;;;;;2.30;99.90;;;;;;4146257;28;19909;-80
2021/04/02 01:46:21;;;;;;;;;;;2.40;99.90;;;;;;4146040;28;20782;-80
2021/04/02 01:48:22;;;;;;;;;;;2.40;99.90;;;;;;4163962;28;20307;-80
2021/04/02 01:50:23;;;;;;;;;;;2.40;99.90;;;;;;4161509;28;19920;-80
2021/04/02 01:52:24;;;;;;;;;;;2.40;99.90;;;;;;4164049;28;19913;-80
2021/04/02 01:54:25;;;;;;;;;;;2.40;99.90;;;;;;4164048;28;19917;-80
2021/04/02 01:56:27;;;;;;;;;;;2.50;99.90;;;;;;4146001;28;20284;-81
2021/04/02 01:58:28;;;;;;;;;;;2.50;99.90;;;;;;4163887;28;20268;-80
2021/04/02 02:00:31;;;;;;;;;;;2.50;99.90;;;;;;4146275;28;19913;-80
2021/04/02 02:02:32;;;;;;;;;;;2.50;99.90;;;;;;4163893;28;19909;-80
2021/04/02 02:04:33;;;;;;;;;;;2.40;99.90;;;;;;4139521;28;19921;-80
2021/04/02 02:06:34;;;;;;;;;;;2.40;99.90;;;;;;4156523;28;19959;-80
2021/04/02 02:08:36;;;;;;;;;;;2.40;99.90;;;;;;4146400;28;19909;-80
2021/04/02 02:10:36;;;;;;;;;;;2.40;99.90;;;;;;4146229;28;19913;-81
2021/04/02 02:12:39;;;;;;;;;;;2.40;99.90;;;;;;4160936;28;19932;-80
2021/04/02 02:14:41;;;;;;;;;;;2.50;99.90;;;;;;4145551;28;20027;-81
2021/04/02 02:16:43;;;;;;;;;;;2.40;99.90;;;;;;4145598;28;19909;-81
2021/04/02 02:18:44;;;;;;;;;;;2.40;99.90;;;;;;4163228;28;20351;-81
2021/04/02 02:20:45;;;;;;;;;;;2.30;99.90;;;;;;4163544;28;19909;-81
2021/04/02 02:22:46;;;;;;;;;;;2.20;99.90;;;;;;4163608;28;19909;-80
2021/04/02 02:24:48;;;;;;;;;;;2.20;99.90;;;;;;4145578;28;19928;-80
2021/04/02 02:26:48;;;;;;;;;;;2.20;99.90;;;;;;4155960;28;19910;-81
2021/04/02 02:28:49;;;;;;;;;;;2.20;99.90;;;;;;4139542;28;20462;-80
2021/04/02 02:30:50;;;;;;;;;;;2.10;99.90;;;;;;4146166;28;19913;-81
2021/04/02 02:32:51;;;;;;;;;;;2.20;99.90;;;;;;4154943;28;19913;-80
2021/04/02 02:34:52;;;;;;;;;;;2.20;99.90;;;;;;4141460;28;19914;-81
2021/04/02 02:36:53;;;;;;;;;;;2.20;99.90;;;;;;4136142;28;19969;-81
2021/04/02 02:38:54;;;;;;;;;;;2.20;99.90;;;;;;4145985;28;19948;-80
2021/04/02 02:40:56;;;;;;;;;;;2.20;99.90;;;;;;4145450;28;20301;-80
2021/04/02 02:42:57;;;;;;;;;;;2.30;99.90;;;;;;4161549;28;20370;-81
2021/04/02 02:44:58;;;;;;;;;;;2.20;99.90;;;;;;4145093;28;19989;-80
2021/04/02 02:47:08;;;;;;;;;;;2.20;99.90;;;;;;4163055;28;19913;-80
2021/04/02 02:49:11;;;;;;;;;;;2.20;99.90;;;;;;4162539;28;19916;-80
2021/04/02 02:51:12;;;;;;;;;;;2.20;99.90;;;;;;4138278;28;19933;-80
2021/04/02 02:53:15;;;;;;;;;;;2.20;99.90;;;;;;4145688;28;19909;-81
2021/04/02 02:55:16;;;;;;;;;;;2.10;99.90;;;;;;4144947;28;19995;-80
2021/04/02 02:57:18;;;;;;;;;;;2.20;99.90;;;;;;4161644;28;19917;-80
2021/04/02 02:59:20;;;;;;;;;;;2.20;99.90;;;;;;4163130;28;19909;-80
2021/04/02 03:01:23;;;;;;;;;;;2.20;99.90;;;;;;4162041;28;20372;-80
2021/04/02 03:03:25;;;;;;;;;;;2.30;99.90;;;;;;4143837;28;19916;-79
2021/04/02 03:05:28;;;;;;;;;;;2.20;99.90;;;;;;4143542;28;20324;-79
2021/04/02 03:07:30;;;;;;;;;;;2.20;99.90;;;;;;4143751;28;19988;-80
2021/04/02 03:09:32;;;;;;;;;;;2.20;99.90;;;;;;4143824;28;20188;-81
2021/04/02 03:11:33;;;;;;;;;;;2.20;99.90;;;;;;4144010;28;19920;-79
2021/04/02 03:13:34;;;;;;;;;;;2.10;99.90;;;;;;4159958;28;19913;-80
2021/04/02 03:15:35;;;;;;;;;;;2.10;99.90;;;;;;4143109;28;19936;-80
2021/04/02 03:17:37;;;;;;;;;;;2.10;99.90;;;;;;4161805;28;19909;-81
2021/04/02 03:19:38;;;;;;;;;;;2.10;99.90;;;;;;4125351;28;20377;-81
2021/04/02 03:21:39;;;;;;;;;;;2.10;99.90;;;;;;4118042;28;20369;-80
2021/04/02 03:23:42;;;;;;;;;;;2.10;99.90;;;;;;4127677;28;19910;-81
2021/04/02 03:25:45;;;;;;;;;;;2.10;99.90;;;;;;4127426;28;19913;-81
2021/04/02 03:27:47;;;;;;;;;;;2.10;99.90;;;;;;4127054;28;19964;-81
2021/04/02 03:29:47;;;;;;;;;;;2.10;99.90;;;;;;4127800;28;19957;-81
2021/04/02 03:31:48;;;;;;;;;;;2.20;99.90;;;;;;4127405;28;19917;-81
2021/04/02 03:33:53;;;;;;;;;;;2.20;99.90;;;;;;4128798;28;19910;-80
2021/04/02 03:35:57;;;;;;;;;;;2.10;99.90;;;;;;4127334;28;19925;-80
2021/04/02 03:37:59;;;;;;;;;;;2.20;99.90;;;;;;4128767;28;19909;-80
2021/04/02 03:40:00;;;;;;;;;;;2.30;99.90;;;;;;4126293;28;20091;-81
2021/04/02 03:42:01;;;;;;;;;;;2.20;99.90;;;;;;4116054;28;19909;-80
2021/04/02 03:44:02;;;;;;;;;;;2.20;99.90;;;;;;4128693;28;19991;-80
2021/04/02 03:46:03;;;;;;;;;;;2.20;99.90;;;;;;4129333;28;19913;-80
2021/04/02 03:48:04;;;;;;;;;;;2.20;99.90;;;;;;4129927;28;19933;-81
2021/04/02 03:50:09;;;;;;;;;;;2.10;99.90;;;;;;4128596;28;19967;-80
2021/04/02 03:52:15;;;;;;;;;;;2.10;99.90;;;;;;4126393;28;19968;-81
2021/04/02 03:54:16;;;;;;;;;;;2.10;99.90;;;;;;4125081;28;19992;-81
2021/04/02 03:56:19;;;;;;;;;;;2.20;99.90;;;;;;4128052;28;19925;-80
2021/04/02 03:58:20;;;;;;;;;;;2.20;99.90;;;;;;4129658;28;20012;-80
2021/04/02 04:00:27;;;;;;;;;;;2.20;99.90;;;;;;4128190;28;19917;-80
2021/04/02 04:02:28;;;;;;;;;;;2.20;99.90;;;;;;4129110;28;19929;-80
2021/04/02 04:04:29;;;;;;;;;;;2.20;99.90;;;;;;4128903;28;19914;-80
2021/04/02 04:06:31;;;;;;;;;;;2.20;99.90;;;;;;4127695;28;19918;-80
2021/04/02 04:08:32;;;;;;;;;;;2.20;99.90;;;;;;4127066;28;19918;-79
2021/04/02 04:10:32;;;;;;;;;;;2.20;99.90;;;;;;4125578;28;19917;-80
2021/04/02 04:12:34;;;;;;;;;;;2.10;99.90;;;;;;4128423;28;19921;-80
2021/04/02 04:14:36;;;;;;;;;;;2.10;99.90;;;;;;4129345;28;20288;-80
2021/04/02 04:16:38;;;;;;;;;;;2.10;99.90;;;;;;4128207;28;19910;-80
2021/04/02 04:18:39;;;;;;;;;;;2.10;99.90;;;;;;4142974;28;19917;-81
2021/04/02 04:20:41;;;;;;;;;;;2.20;99.90;;;;;;4144397;28;20004;-81
2021/04/02 04:22:42;;;;;;;;;;;2.10;99.90;;;;;;4162162;28;20005;-79
2021/04/02 04:24:47;;;;;;;;;;;2.10;99.90;;;;;;4162166;28;19917;-81
2021/04/02 04:26:50;;;;;;;;;;;2.00;99.90;;;;;;4162105;28;19909;-81
2021/04/02 04:28:51;;;;;;;;;;;2.00;99.90;;;;;;4144776;28;20430;-81
2021/04/02 04:30:54;;;;;;;;;;;1.80;99.90;;;;;;4160598;28;19933;-82
2021/04/02 04:32:55;;;;;;;;;;;1.80;99.90;;;;;;4144305;28;19913;-81
2021/04/02 04:34:56;;;;;;;;;;;1.80;99.90;;;;;;4161299;28;19935;-81
2021/04/02 04:36:57;;;;;;;;;;;1.80;99.90;;;;;;4141690;28;19914;-81
2021/04/02 04:38:59;;;;;;;;;;;1.90;99.90;;;;;;4145377;28;19910;-81
2021/04/02 04:41:02;;;;;;;;;;;1.90;99.90;;;;;;4146868;28;19988;-82
2021/04/02 04:43:03;;;;;;;;;;;1.90;99.90;;;;;;4146780;28;19932;-82
2021/04/02 04:45:04;;;;;;;;;;;2.10;99.90;;;;;;4147487;28;19988;-81
2021/04/02 04:47:05;;;;;;;;;;;2.10;99.90;;;;;;4164817;28;19913;-81
2021/04/02 04:49:05;;;;;;;;;;;2.10;99.90;;;;;;4146409;28;20603;-81
2021/04/02 04:51:07;;;;;;;;;;;2.10;99.90;;;;;;4164551;28;19937;-81
2021/04/02 04:53:14;;;;;;;;;;;2.10;99.90;;;;;;4164346;28;19921;-80
2021/04/02 04:55:15;;;;;;;;;;;2.00;99.90;;;;;;4146918;28;19913;-80
2021/04/02 04:57:16;;;;;;;;;;;2.00;99.90;;;;;;4136801;28;20376;-80
2021/04/02 04:59:18;;;;;;;;;;;2.00;99.90;;;;;;4163722;28;19909;-80
2021/04/02 05:01:20;;;;;;;;;;;2.00;99.90;;;;;;4164992;28;19979;-80
2021/04/02 05:03:21;;;;;;;;;;;2.10;99.90;;;;;;4164068;28;19962;-80
2021/04/02 05:05:25;;;;;;;;;;;2.10;99.90;;;;;;4140925;28;25915;-81
2021/04/02 05:07:26;;;;;;;;;;;2.10;99.90;;;;;;4160370;28;19991;-81
2021/04/02 05:09:28;;;;;;;;;;;2.20;99.90;;;;;;4147191;28;20331;-80
2021/04/02 05:11:30;;;;;;;;;;;2.00;99.90;;;;;;4164651;28;19913;-80
2021/04/02 05:13:31;;;;;;;;;;;2.10;99.90;;;;;;4163888;28;19921;-80
2021/04/02 05:15:32;;;;;;;;;;;2.20;99.90;;;;;;4145095;28;19917;-80
2021/04/02 05:17:33;;;;;;;;;;;1.90;99.90;;;;;;4164403;28;19944;-81
2021/04/02 05:19:34;;;;;;;;;;;2.10;99.90;;;;;;4146526;28;20025;-81
2021/04/02 05:21:37;;;;;;;;;;;2.00;99.90;;;;;;4158717;28;19952;-81
2021/04/02 05:23:37;;;;;;;;;;;2.00;99.90;;;;;;4164178;28;19909;-80
2021/04/02 05:25:38;;;;;;;;;;;1.90;99.90;;;;;;4146733;28;20028;-79
2021/04/02 05:27:39;;;;;;;;;;;1.90;99.90;;;;;;4146599;28;19933;-80
2021/04/02 05:29:39;;;;;;;;;;;1.90;99.90;;;;;;4164672;28;19913;-80
2021/04/02 05:31:40;;;;;;;;;;;1.80;99.90;;;;;;4164545;28;19916;-81
2021/04/02 05:33:41;;;;;;;;;;;1.80;99.90;;;;;;4146903;28;19917;-80
2021/04/02 05:35:41;;;;;;;;;;;1.80;99.90;;;;;;4146388;28;20537;-81
2021/04/02 05:37:42;;;;;;;;;;;1.80;99.90;;;;;;4164258;28;19913;-81
2021/04/02 05:39:43;;;;;;;;;;;1.80;99.90;;;;;;4164409;28;20240;-81
2021/04/02 05:41:56;;;;;;;;;;;1.90;99.90;;;;;;4164286;28;20279;-81
2021/04/02 05:44:01;;;;;;;;;;;2.00;99.90;;;;;;4164143;28;20382;-81
2021/04/02 05:46:02;;;;;;;;;;;2.00;99.90;;;;;;4146269;28;19910;-80
2021/04/02 05:48:02;;;;;;;;;;;2.00;99.90;;;;;;4145913;28;20016;-79
2021/04/02 05:50:03;;;;;;;;;;;2.00;99.90;;;;;;4163661;28;20288;-79
2021/04/02 05:52:04;;;;;;;;;;;2.00;99.90;;;;;;4154634;28;19913;-81
2021/04/02 05:54:07;;;;;;;;;;;2.10;99.90;;;;;;4144422;28;20364;-81
2021/04/02 05:56:09;;;;;;;;;;;2.20;99.90;;;;;;4145634;28;19949;-81
2021/04/02 05:58:10;;;;;;;;;;;2.20;99.90;;;;;;4134184;28;19913;-81
2021/04/02 06:00:12;;;;;;;;;;;2.30;99.90;;;;;;4128312;28;20369;-81
2021/04/02 06:02:14;;;;;;;;;;;2.30;99.90;;;;;;4145219;28;20258;-82
2021/04/02 06:04:15;;;;;;;;;;;2.30;99.90;;;;;;4142417;28;19922;-79
2021/04/02 06:06:16;;;;;;;;;;;2.40;99.90;;;;;;4160167;28;19947;-80
2021/04/02 06:08:20;;;;;;;;;;;2.40;99.90;;;;;;4163217;28;19913;-80
2021/04/02 06:10:20;;;;;;;;;;;2.50;99.90;;;;;;4144712;28;19910;-81
2021/04/02 06:12:25;;;;;;;;;;;2.50;99.90;;;;;;4162889;28;19925;-81
2021/04/02 06:14:25;;;;;;;;;;;2.60;99.90;;;;;;4160390;28;19917;-79
2021/04/02 06:16:26;;;;;;;;;;;2.70;99.90;;;;;;4168515;28;20371;-80
2021/04/02 06:18:26;;;;;;;;;;;2.70;99.90;;;;;;4163992;28;19921;-79
2021/04/02 06:20:32;;;;;;;;;;;2.80;99.90;;;;;;4146161;28;19924;-79
2021/04/02 06:22:32;;;;;;;;;;;2.80;99.90;;;;;;4145366;28;19924;-79
2021/04/02 06:24:37;;;;;;;;;;;2.80;99.90;;;;;;4145533;28;19914;-79
2021/04/02 06:26:38;;;;;;;;;;;2.90;99.90;;;;;;4163333;28;19909;-80
2021/04/02 06:28:39;;;;;;;;;;;2.90;99.90;;;;;;4154099;28;19909;-79
2021/04/02 06:30:41;;;;;;;;;;;3.00;99.90;;;;;;4143877;28;19983;-78
2021/04/02 06:32:42;;;;;;;;;;;3.10;99.90;;;;;;4145677;28;20361;-79
2021/04/02 06:34:43;;;;;;;;;;;3.10;99.90;;;;;;4145337;28;19917;-80
2021/04/02 06:36:45;;;;;;;;;;;3.20;99.90;;;;;;4145992;28;19909;-78
2021/04/02 06:38:47;;;;;;;;;;;3.30;99.90;;;;;;4163286;28;20360;-79
2021/04/02 06:40:48;;;;;;;;;;;3.40;99.90;;;;;;4145677;28;19992;-79
2021/04/02 06:42:48;;;;;;;;;;;3.50;99.90;;;;;;4144958;28;19910;-80
2021/04/02 06:44:57;;;;;;;;;;;3.50;99.90;;;;;;4162509;28;20158;-80
2021/04/02 06:46:58;;;;;;;;;;;3.60;99.90;;;;;;4144570;28;20000;-79
2021/04/02 06:49:12;;;;;;;;;;;3.70;99.90;;;;;;4140104;28;19909;-79
2021/04/02 06:51:16;;;;;;;;;;;3.70;99.90;;;;;;4145247;28;19913;-78
2021/04/02 06:53:17;;;;;;;;;;;3.80;99.90;;;;;;4145099;28;19909;-77
2021/04/02 06:55:18;;;;;;;;;;;3.80;99.90;;;;;;4162309;28;19913;-78
2021/04/02 06:57:20;;;;;;;;;;;3.90;99.90;;;;;;4159638;28;19910;-79
2021/04/02 06:59:23;;;;;;;;;;;4.00;99.90;;;;;;4160040;28;19996;-79
2021/04/02 07:01:24;;;;;;;;;;;4.10;99.90;;;;;;4144830;28;19913;-79
2021/04/02 07:03:25;;;;;;;;;;;4.10;99.90;;;;;;4163238;28;19967;-80
2021/04/02 07:05:26;;;;;;;;;;;4.10;99.90;;;;;;4162780;28;19909;-78
2021/04/02 07:07:27;;;;;;;;;;;4.20;99.90;;;;;;4154423;28;20372;-80
2021/04/02 07:09:28;;;;;;;;;;;4.20;99.90;;;;;;4140444;28;19914;-79
2021/04/02 07:11:29;;;;;;;;;;;4.30;99.90;;;;;;4160291;28;19917;-80
2021/04/02 07:13:34;;;;;;;;;;;4.20;99.90;;;;;;4160525;28;19933;-81
2021/04/02 07:15:35;;;;;;;;;;;4.40;99.90;;;;;;4144385;28;20368;-81
2021/04/02 07:17:36;;;;;;;;;;;4.70;99.90;;;;;;4144800;28;19909;-81
2021/04/02 07:19:37;;;;;;;;;;;4.20;99.90;;;;;;4140790;28;20315;-82
2021/04/02 07:21:37;;;;;;;;;;;4.60;99.90;;;;;;4142354;28;19948;-80
2021/04/02 07:23:39;;;;;;;;;;;4.90;99.90;;;;;;4158561;28;19916;-81
2021/04/02 07:25:40;;;;;;;;;;;4.80;99.90;;;;;;4144326;28;19916;-80
2021/04/02 07:27:40;;;;;;;;;;;5.00;99.90;;;;;;4143990;28;19917;-79
2021/04/02 07:29:41;;;;;;;;;;;5.20;99.90;;;;;;4143402;28;19999;-80
2021/04/02 07:31:42;;;;;;;;;;;5.40;99.90;;;;;;4144730;28;20381;-80
2021/04/02 07:33:43;;;;;;;;;;;5.70;99.90;;;;;;4145105;28;19917;-80
2021/04/02 07:35:53;;;;;;;;;;;6.00;99.90;;;;;;4142492;28;19917;-80
2021/04/02 07:37:55;;;;;;;;;;;6.20;99.90;;;;;;4159995;28;20000;-79
2021/04/02 07:39:56;;;;;;;;;;;6.40;99.90;;;;;;4159961;28;20618;-79
2021/04/02 07:41:57;;;;;;;;;;;6.60;99.90;;;;;;4143106;28;19913;-79
2021/04/02 07:43:59;;;;;;;;;;;6.50;99.90;;;;;;4143303;28;19986;-79
2021/04/02 07:46:00;;;;;;;;;;;6.40;99.90;;;;;;4159739;28;20352;-80
2021/04/02 07:48:10;;;;;;;;;;;6.30;99.90;;;;;;4145327;28;19910;-81
2021/04/02 07:50:11;;;;;;;;;;;6.10;99.90;;;;;;4161321;28;19909;-81
2021/04/02 07:52:12;;;;;;;;;;;6.10;99.90;;;;;;4162475;28;19909;-81
2021/04/02 07:54:17;;;;;;;;;;;6.30;99.90;;;;;;4131608;28;20371;-80
2021/04/02 07:56:18;;;;;;;;;;;6.40;99.90;;;;;;4147130;28;19909;-80
2021/04/02 07:58:23;;;;;;;;;;;6.60;99.90;;;;;;4129184;28;19910;-80
2021/04/02 08:00:25;;;;;;;;;;;6.80;99.90;;;;;;4148907;28;19909;-80
2021/04/02 08:02:29;;;;;;;;;;;7.00;99.90;;;;;;4147347;28;19909;-80
2021/04/02 08:04:30;;;;;;;;;;;;;;;;;;4142987;28;19917;-81
2021/04/02 08:06:33;;;;;;;;;;;;;;;;;;4160289;28;19917;-80
2021/04/02 08:08:37;;;;;;;;;;;;;;;;;;4163072;28;20284;-80
2021/04/02 08:10:40;;;;;;;;;;;;;;;;;;4162118;28;19921;-81
2021/04/02 08:12:42;;;;;;;;;;;;;;;;;;4145227;28;19909;-80
2021/04/02 08:14:43;;;;;;;;;;;;;;;;;;4147660;28;19945;-80
2021/04/02 08:16:46;;;;;;;;;;;;;;;;;;4148641;28;19909;-80
2021/04/02 08:18:47;;;;;;;;;;;;;;;;;;4151123;28;19921;-79
2021/04/02 08:20:49;;;;;;;;;;;;;;;;;;4164635;28;19913;-78
2021/04/02 08:22:51;;;;;;;;;;;;;;;;;;4147799;28;19924;-80
2021/04/02 08:27:08;;;;;;;;;;;;;;;;;;4131054;27;19921;-80
2021/04/02 08:29:11;;;;;;;;;;;;;;;;;;4158625;28;19925;-80
2021/04/02 08:31:12;;;;;;;;;;;;;;;;;;4172662;28;19925;-79
2021/04/02 08:33:14;;;;;;;;;;;;;;;;;;4158253;28;19928;-79
2021/04/02 08:35:18;;;;;;;;;;;;;;;;;;4189402;28;19927;-78
2021/04/02 08:37:20;;;;;;;;;;;;;;;;;;4190126;28;19920;-80
2021/04/02 08:39:24;;;;;;;;;;;7.70;99.90;;;;;;4191541;28;19927;-79
2021/04/02 08:41:32;;;;;;;;;;;7.90;99.90;;;;;;4193934;28;19925;-80
2021/04/02 08:43:40;;;;;;;;;;;7.70;99.90;;;;;;4189990;28;19924;-80
2021/04/02 08:45:40;;;;;;;;;;;7.70;99.90;;;;;;4172180;28;19991;-79
2021/04/02 08:47:41;;;;;;;;;;;7.80;99.90;;;;;;4191713;28;20350;-80
2021/04/02 08:49:52;;;;;;;;;;;7.70;99.90;;;;;;4194638;28;19917;-79
2021/04/02 08:51:54;;;;;;;;;;;7.70;99.90;;;;;;4192842;28;19921;-80
2021/04/02 08:53:55;;;;;;;;;;;7.90;99.90;;;;;;4194753;28;19928;-80
2021/04/02 08:55:56;;;;;;;;;;;7.80;99.90;;;;;;4188796;28;19992;-80
2021/04/02 08:57:57;;;;;;;;;;;7.80;99.90;;;;;;4187356;28;20416;-80
2021/04/02 09:00:00;;;;;;;;;;;7.90;99.90;;;;;;4186897;28;19921;-81
2021/04/02 09:02:01;;;;;;;;;;;8.00;99.90;;;;;;4175284;28;19925;-81
2021/04/02 09:04:03;;;;;;;;;;;;;;;;;;4157353;28;20307;-80
2021/04/02 09:06:03;;;;;;;;;;;8.20;99.90;;;;;;4176361;28;19933;-80
2021/04/02 09:08:04;;;;;;;;;;;8.40;99.90;;;;;;4175907;28;19921;-80
2021/04/02 09:10:17;;;;;;;;;;;8.40;99.90;;;;;;4189032;28;19925;-79
2021/04/02 09:12:19;;;;;;;;;;;8.40;99.90;;;;;;4177556;28;19917;-79
2021/04/02 09:14:21;;;;;;;;;;;8.50;99.90;;;;;;4177067;28;19921;-79
2021/04/02 09:16:21;;;;;;;;;;;8.50;99.90;;;;;;4175746;28;19933;-80
2021/04/02 09:18:27;;;;;;;;;;;8.50;99.90;;;;;;4191588;28;19927;-78
2021/04/02 09:20:27;;;;;;;;;;;8.30;99.90;;;;;;4193710;28;19928;-79
2021/04/02 09:22:29;;;;;;;;;;;8.20;99.90;;;;;;4192525;28;19917;-80
2021/04/02 09:24:33;;;;;;;;;;;8.20;99.90;;;;;;4179701;28;19971;-80
2021/04/02 09:26:39;;;;;;;;;;;8.20;99.90;;;;;;4184686;28;19925;-80
2021/04/02 09:28:40;;;;;;;;;;;8.30;99.90;;;;;;4190804;28;20356;-80
2021/04/02 09:30:41;;;;;;;;;;;8.30;99.90;;;;;;4173805;28;19921;-79
2021/04/02 09:32:42;;;;;;;;;;;8.30;99.90;;;;;;4190445;28;19928;-80
2021/04/02 09:34:43;;;;;;;;;;;8.50;99.90;;;;;;4190482;28;19924;-79
2021/04/02 09:36:43;;;;;;;;;;;8.80;99.90;;;;;;4189709;28;19936;-78
2021/04/02 09:38:46;;;;;;;;;;;8.90;99.90;;;;;;4157273;28;19924;-80
2021/04/02 09:40:47;;;;;;;;;;;9.00;99.90;;;;;;4163301;28;19924;-78
2021/04/02 09:42:48;;;;;;;;;;;9.00;99.90;;;;;;4167127;28;19917;-80
2021/04/02 09:44:49;;;;;;;;;;;9.00;99.90;;;;;;4181643;28;19916;-79
2021/04/02 09:46:51;;;;;;;;;;;8.80;99.90;;;;;;4181570;28;19931;-80
2021/04/02 09:48:52;;;;;;;;;;;8.70;99.90;;;;;;4164057;28;19931;-80
2021/04/02 09:50:53;;;;;;;;;;;8.60;99.90;;;;;;4180376;28;20347;-79
2021/04/02 09:52:54;;;;;;;;;;;8.50;99.90;;;;;;4182102;28;19921;-82
2021/04/02 09:54:54;;;;;;;;;;;8.50;99.90;;;;;;4181938;28;19924;-81
2021/04/02 09:56:57;;;;;;;;;;;8.50;99.90;;;;;;4164801;28;19921;-81
2021/04/02 09:58:58;;;;;;;;;;;8.60;99.90;;;;;;4182352;28;20295;-80
2021/04/02 10:00:58;;;;;;;;;;;8.60;99.90;;;;;;4181192;28;19916;-79
2021/04/02 10:02:59;;;;;;;;;;;8.60;99.90;;;;;;4165087;28;19924;-80
2021/04/02 10:05:01;;;;;;;;;;;8.80;99.90;;;;;;4161928;28;19924;-80
2021/04/02 10:07:01;;;;;;;;;;;9.00;99.90;;;;;;4159000;28;20347;-81
2021/04/02 10:09:04;;;;;;;;;;;9.20;99.90;;;;;;4182839;28;19920;-82
2021/04/02 10:11:05;;;;;;;;;;;9.10;99.90;;;;;;4160884;28;19971;-80
2021/04/02 10:13:05;;;;;;;;;;;9.00;99.90;;;;;;4176405;28;19920;-79
2021/04/02 10:15:06;;;;;;;;;;;9.00;99.90;;;;;;4183423;28;19920;-80
2021/04/02 10:17:11;;;;;;;;;;;9.20;99.90;;;;;;4181204;28;20465;-80
2021/04/02 10:19:15;;;;;;;;;;;;;;;;;;4181516;28;19924;-81
2021/04/02 10:21:18;;;;;;;;;;;;;;;;;;4160784;28;19924;-81
2021/04/02 10:23:19;;;;;;;;;;;;;;;;;;4163123;28;19925;-81
2021/04/02 10:25:20;;;;;;;;;;;;;;;;;;4178465;28;19921;-80
2021/04/02 10:27:21;;;;;;;;;;;;;;;;;;4180164;28;22826;-80
2021/04/02 10:29:22;;;;;;;;;;;;;;;;;;4177893;28;20422;-79
2021/04/02 10:31:23;;;;;;;;;;;;;;;;;;4180955;28;20320;-79
2021/04/02 10:33:24;;;;;;;;;;;;;;;;;;4180695;28;19917;-80
2021/04/02 10:35:28;;;;;;;;;;;;;;;;;;4168539;28;20300;-80
2021/04/02 10:37:30;;;;;;;;;;;;;;;;;;4179333;28;19967;-82
2021/04/02 10:39:31;;;;;;;;;;;;;;;;;;4179972;28;19967;-82
2021/04/02 10:41:32;;;;;;;;;;;;;;;;;;4178579;28;20244;-81
2021/04/02 10:43:33;;;;;;;;;;;;;;;;;;4153926;28;19917;-81
2021/04/02 10:45:34;;;;;;;;;;;;;;;;;;4172660;28;19917;-80
2021/04/02 10:47:35;;;;;;;;;;;;;;;;;;4179739;28;19928;-80
2021/04/02 10:49:37;;;;;;;;;;;;;;;;;;4162808;28;19974;-81
2021/04/02 10:51:38;;;;;;;;;;;;;;;;;;4179436;28;19920;-82
2021/04/02 10:53:39;;;;;;;;;;;;;;;;;;4179153;28;19921;-80
2021/04/02 10:55:40;;;;;;;;;;;;;;;;;;4175989;28;19927;-82
2021/04/02 10:57:41;;;;;;;;;;;;;;;;;;4173758;28;19999;-82
2021/04/02 10:59:42;;;;;;;;;;;;;;;;;;4172811;28;19917;-80
2021/04/02 11:01:43;;;;;;;;;;;;;;;;;;4172711;28;19995;-81
2021/04/02 11:03:44;;;;;;;;;;;;;;;;;;4169897;28;19966;-82
2021/04/02 11:05:45;;;;;;;;;;;;;;;;;;4160572;28;19996;-82
2021/04/02 11:07:46;;;;;;;;;;;;;;;;;;4178929;28;20380;-80
2021/04/02 11:09:47;;;;;;;;;;;;;;;;;;4163115;28;19956;-81
2021/04/02 11:11:49;;;;;;;;;;;;;;;;;;4164807;28;20395;-80
2021/04/02 11:13:50;;;;;;;;;;;;;;;;;;4149149;28;19943;-80
2021/04/02 11:15:51;;;;;;;;;;;10.00;99.90;;;;;;4195231;28;20111;-80
2021/04/02 11:17:52;;;;;;;;;;;10.00;99.90;;;;;;4179809;28;20969;-80
2021/04/02 11:19:54;;;;;;;;;;;10.00;99.90;;;;;;4176050;28;19961;-82
2021/04/02 11:21:55;;;;;;;;;;;10.00;99.90;;;;;;4178664;28;20391;-82
2021/04/02 11:23:56;;;;;;;;;;;9.70;99.90;;;;;;4160022;28;19971;-81
2021/04/02 11:25:56;;;;;;;;;;;9.60;99.90;;;;;;4183704;28;19924;-81
2021/04/02 11:27:57;;;;;;;;;;;9.60;99.90;;;;;;4178892;28;20307;-82
2021/04/02 11:29:58;;;;;;;;;;;9.90;99.90;;;;;;4179042;28;19924;-84
2021/04/02 11:31:58;;;;;;;;;;;10.10;99.90;;;;;;4179017;28;19976;-81
2021/04/02 11:33:59;;;;;;;;;;;10.00;99.90;;;;;;4158635;28;19947;-82
2021/04/02 11:36:01;;;;;;;;;;;9.90;99.90;;;;;;4161243;28;19968;-79
2021/04/02 11:38:02;;;;;;;;;;;9.80;99.90;;;;;;4190031;28;19924;-79
2021/04/02 11:40:09;;;;;;;;;;;9.80;99.90;;;;;;4151907;28;20169;-80
2021/04/02 11:42:09;;;;;;;;;;;9.90;99.90;;;;;;4180717;28;20003;-81
2021/04/02 11:44:10;;;;;;;;;;;;;;;;;;4196484;28;19947;-80
2021/04/02 11:46:11;;;;;;;;;;;;;;;;;;4196547;28;19924;-79
2021/04/02 11:48:15;;;;;;;;;;;;;;;;;;4163220;28;19921;-80
2021/04/02 11:50:16;;;;;;;;;;;;;;;;;;4179163;28;19916;-80
2021/04/02 11:52:17;;;;;;;;;;;;;;;;;;4162177;28;19951;-80
2021/04/02 11:54:18;;;;;;;;;;;;;;;;;;4178088;28;19924;-80
2021/04/02 11:56:19;;;;;;;;;;;;;;;;;;4196444;28;19920;-79
2021/04/02 11:58:20;;;;;;;;;;;;;;;;;;4162124;28;19921;-81
2021/04/02 12:00:22;;;;;;;;;;;;;;;;;;4177307;28;19924;-81
2021/04/02 12:02:23;;;;;;;;;;;;;;;;;;4179695;28;19952;-80
2021/04/02 12:04:29;;;;;;;;;;;;;;;;;;4162261;28;19917;-81
2021/04/02 12:06:32;;;;;;;;;;;;;;;;;;4178435;28;20024;-80
2021/04/02 12:08:34;;;;;;;;;;;;;;;;;;4162683;28;19987;-80
2021/04/02 12:10:37;;;;;;;;;;;;;;;;;;4168335;28;19975;-82
2021/04/02 12:12:40;;;;;;;;;;;;;;;;;;4168040;28;20015;-80
2021/04/02 12:14:41;;;;;;;;;;;;;;;;;;4190538;28;20402;-80
2021/04/02 12:16:42;;;;;;;;;;;;;;;;;;4156667;28;20008;-80
2021/04/02 12:18:43;;;;;;;;;;;;;;;;;;4169373;28;19925;-82
2021/04/02 12:20:44;;;;;;;;;;;;;;;;;;4165951;28;19924;-81
2021/04/02 12:22:45;;;;;;;;;;;;;;;;;;4158157;28;19917;-80
2021/04/02 12:24:46;;;;;;;;;;;;;;;;;;4192185;28;19927;-81
2021/04/02 12:26:47;;;;;;;;;;;;;;;;;;4170714;28;19987;-79
2021/04/02 12:28:48;;;;;;;;;;;;;;;;;;4196827;28;19916;-79